createdAt,value
2023-01-17T00:00:15.134Z,90
2023-01-17T00:05:15.097Z,90
2023-01-17T00:10:15.097Z,88
2023-01-17T00:15:15.091Z,88
2023-01-17T00:20:15.091Z,87
2023-01-17T00:25:15.101Z,87
2023-01-17T00:30:15.087Z,87
2023-01-17T00:35:15.087Z,87
2023-01-17T00:40:15.085Z,87
2023-01-17T00:45:15.097Z,87
2023-01-17T00:50:15.088Z,86
2023-01-17T00:55:15.088Z,87
2023-01-17T01:00:15.088Z,87
2023-01-17T01:05:15.102Z,86
2023-01-17T01:10:15.089Z,86
2023-01-17T01:15:15.094Z,87
2023-01-17T01:20:15.092Z,86
2023-01-17T01:25:15.115Z,86
2023-01-17T01:30:15.093Z,86
2023-01-17T01:35:15.094Z,85
2023-01-17T01:40:15.087Z,85
2023-01-17T01:45:15.085Z,85
2023-01-17T01:50:15.084Z,85
2023-01-17T01:55:15.091Z,85
2023-01-17T02:00:15.090Z,86
2023-01-17T02:05:15.093Z,85
2023-01-17T02:10:15.102Z,85
2023-01-17T02:15:15.092Z,85
2023-01-17T02:20:15.088Z,86
2023-01-17T02:25:15.092Z,85
2023-01-17T02:30:15.095Z,85
2023-01-17T02:35:15.093Z,85
2023-01-17T02:40:15.095Z,85
2023-01-17T02:45:15.093Z,82
2023-01-17T02:50:15.087Z,82
2023-01-17T02:55:15.106Z,81
2023-01-17T03:00:15.084Z,80
2023-01-17T03:05:15.085Z,79
2023-01-17T03:10:15.087Z,79
2023-01-17T03:15:15.097Z,79
2023-01-17T03:20:15.082Z,78
2023-01-17T03:25:15.103Z,78
2023-01-17T03:30:15.085Z,78
2023-01-17T03:35:15.094Z,77
2023-01-17T03:40:15.118Z,77
2023-01-17T03:45:15.113Z,76
2023-01-17T03:50:15.107Z,76
2023-01-17T03:55:15.091Z,77
2023-01-17T04:00:15.088Z,77
2023-01-17T04:05:15.086Z,76
2023-01-17T04:10:15.091Z,76
2023-01-17T04:15:15.094Z,77
2023-01-17T04:20:15.083Z,76
2023-01-17T04:25:15.087Z,77
2023-01-17T04:30:15.090Z,78
2023-01-17T04:35:15.095Z,78
2023-01-17T04:40:15.092Z,79
2023-01-17T04:45:15.097Z,78
2023-01-17T04:50:15.100Z,78
2023-01-17T04:55:15.599Z,78
2023-01-17T05:00:15.100Z,79
2023-01-17T05:05:15.105Z,80
2023-01-17T05:10:15.102Z,81
2023-01-17T05:15:15.099Z,82
2023-01-17T05:20:15.104Z,82
2023-01-17T05:25:15.091Z,82
2023-01-17T05:30:15.091Z,82
2023-01-17T05:35:15.102Z,83
2023-01-17T05:40:15.092Z,82
2023-01-17T05:45:15.092Z,83
2023-01-17T05:50:15.095Z,83
2023-01-17T05:55:15.092Z,83
2023-01-17T06:00:15.086Z,84
2023-01-17T06:05:15.102Z,85
2023-01-17T06:10:15.085Z,85
2023-01-17T06:15:15.096Z,86
2023-01-17T06:20:15.087Z,87
2023-01-17T06:25:15.094Z,87
2023-01-17T06:30:15.089Z,87
2023-01-17T06:35:15.091Z,87
2023-01-17T06:40:15.089Z,88
2023-01-17T06:45:15.102Z,89
2023-01-17T06:50:15.091Z,89
2023-01-17T06:55:15.086Z,89
2023-01-17T07:00:15.091Z,89
2023-01-17T07:05:15.091Z,89
2023-01-17T07:10:15.084Z,89
2023-01-17T07:15:15.096Z,89
2023-01-17T07:20:15.089Z,89
2023-01-17T07:25:15.100Z,91
2023-01-17T07:30:15.092Z,91
2023-01-17T07:35:15.101Z,91
2023-01-17T07:40:15.084Z,91
2023-01-17T07:45:15.104Z,91
2023-01-17T07:50:15.162Z,91
2023-01-17T07:55:15.116Z,90
2023-01-17T08:00:15.095Z,89
2023-01-17T08:05:15.076Z,88
2023-01-17T08:10:15.094Z,87
2023-01-17T08:15:15.105Z,87
2023-01-17T08:20:15.089Z,86
2023-01-17T08:25:15.092Z,86
2023-01-17T08:30:15.084Z,87
2023-01-17T08:35:15.107Z,86
2023-01-17T08:40:15.695Z,86
2023-01-17T08:45:15.093Z,85
2023-01-17T08:50:15.090Z,85
2023-01-17T08:55:15.096Z,85
2023-01-17T09:00:15.086Z,85
2023-01-17T09:05:15.097Z,84
2023-01-17T09:10:15.100Z,84
2023-01-17T09:15:15.091Z,84
2023-01-17T09:20:15.099Z,83
2023-01-17T09:25:15.099Z,84
2023-01-17T09:30:15.100Z,84
2023-01-17T09:35:15.094Z,84
2023-01-17T09:40:15.091Z,83
2023-01-17T09:45:15.119Z,84
2023-01-17T09:50:15.101Z,83
2023-01-17T09:55:15.091Z,84
2023-01-17T10:00:15.107Z,84
2023-01-17T10:05:15.103Z,84
2023-01-17T10:10:15.083Z,84
2023-01-17T10:15:15.095Z,83
2023-01-17T10:20:15.088Z,84
2023-01-17T10:25:15.089Z,85
2023-01-17T10:30:15.097Z,84
2023-01-17T10:35:15.807Z,85
2023-01-17T10:40:15.091Z,84
2023-01-17T10:45:15.114Z,83
2023-01-17T10:50:15.089Z,81
2023-01-17T10:55:15.098Z,82
2023-01-17T11:00:15.083Z,81
2023-01-17T11:05:15.100Z,80
2023-01-17T11:10:15.093Z,79
2023-01-17T11:15:15.090Z,78
2023-01-17T11:20:15.085Z,77
2023-01-17T11:25:15.100Z,79
2023-01-17T11:30:15.093Z,72
2023-01-17T11:35:15.086Z,75
2023-01-17T11:40:15.115Z,72
2023-01-17T11:45:15.090Z,73
2023-01-17T11:50:15.090Z,71
2023-01-17T11:55:15.089Z,71
2023-01-17T12:00:15.083Z,71
2023-01-17T12:05:15.132Z,69
2023-01-17T12:10:15.129Z,68
2023-01-17T12:15:15.095Z,68
2023-01-17T12:20:15.089Z,67
2023-01-17T12:25:15.151Z,65
2023-01-17T12:30:15.091Z,65
2023-01-17T12:35:15.088Z,63
2023-01-17T12:40:15.092Z,62
2023-01-17T12:45:15.103Z,62
2023-01-17T12:50:15.084Z,64
2023-01-17T12:55:15.103Z,64
2023-01-17T13:00:15.092Z,65
2023-01-17T13:05:15.094Z,65
2023-01-17T13:10:15.093Z,65
2023-01-17T13:15:15.089Z,63
2023-01-17T13:20:15.092Z,64
2023-01-17T13:25:15.099Z,65
2023-01-17T13:30:15.089Z,65
2023-01-17T13:35:15.089Z,67
2023-01-17T13:40:15.099Z,68
2023-01-17T13:45:15.101Z,68
2023-01-17T13:50:15.080Z,67
2023-01-17T13:55:15.097Z,67
2023-01-17T14:00:15.082Z,65
2023-01-17T14:05:15.150Z,66
2023-01-17T14:10:15.110Z,68
2023-01-17T14:15:15.088Z,67
2023-01-17T14:20:15.113Z,65
2023-01-17T14:25:15.097Z,64
2023-01-17T14:30:15.094Z,64
2023-01-17T14:35:15.100Z,63
2023-01-17T14:40:15.092Z,65
2023-01-17T14:45:15.092Z,65
2023-01-17T14:50:15.102Z,66
2023-01-17T14:55:15.094Z,68
2023-01-17T15:00:15.096Z,69
2023-01-17T15:05:15.098Z,70
2023-01-17T15:10:15.091Z,72
2023-01-17T15:15:15.096Z,74
2023-01-17T15:20:15.091Z,75
2023-01-17T15:25:16.286Z,76
2023-01-17T15:30:15.097Z,77
2023-01-17T15:35:15.088Z,80
2023-01-17T15:40:15.104Z,82
2023-01-17T15:45:15.085Z,82
2023-01-17T15:50:15.084Z,82
2023-01-17T15:55:15.078Z,82
2023-01-17T16:00:15.081Z,83
2023-01-17T16:05:15.083Z,83
2023-01-17T16:10:15.089Z,84
2023-01-17T16:15:16.957Z,83
2023-01-17T16:20:15.090Z,82
2023-01-17T16:25:15.106Z,83
2023-01-17T16:30:15.119Z,84
2023-01-17T16:35:15.096Z,85
2023-01-17T16:40:15.088Z,86
2023-01-17T16:45:15.115Z,84
2023-01-17T16:50:15.096Z,85
2023-01-17T16:55:15.093Z,86
2023-01-17T17:00:15.094Z,87
2023-01-17T17:05:15.100Z,86
2023-01-17T17:10:15.106Z,85
2023-01-17T17:15:15.103Z,83
2023-01-17T17:20:15.086Z,82
2023-01-17T17:25:15.086Z,82
2023-01-17T17:30:15.085Z,82
2023-01-17T17:35:15.099Z,82
2023-01-17T17:40:15.090Z,82
2023-01-17T17:45:15.096Z,82
2023-01-17T17:50:15.095Z,81
2023-01-17T17:55:15.101Z,81
2023-01-17T18:00:15.086Z,81
2023-01-17T18:05:15.094Z,81
2023-01-17T18:10:15.094Z,80
2023-01-17T18:15:15.099Z,81
2023-01-17T18:20:15.086Z,81
2023-01-17T18:25:15.093Z,81
2023-01-17T18:30:15.086Z,81
2023-01-17T18:35:15.090Z,81
2023-01-17T18:40:15.084Z,81
2023-01-17T18:45:15.100Z,80
2023-01-17T18:50:15.115Z,80
2023-01-17T18:55:15.094Z,80
2023-01-17T19:00:15.108Z,80
2023-01-17T19:05:15.093Z,80
2023-01-17T19:10:15.093Z,80
2023-01-17T19:15:15.101Z,81
2023-01-17T19:20:15.089Z,81
2023-01-17T19:25:15.088Z,81
2023-01-17T19:30:15.092Z,81
2023-01-17T19:35:15.098Z,81
2023-01-17T19:40:15.086Z,81
2023-01-17T19:45:15.106Z,81
2023-01-17T19:50:15.097Z,81
2023-01-17T19:55:15.110Z,81
2023-01-17T20:00:15.091Z,81
2023-01-17T20:05:15.099Z,82
2023-01-17T20:10:15.103Z,82
2023-01-17T20:15:15.089Z,82
2023-01-17T20:20:15.091Z,82
2023-01-17T20:25:15.082Z,81
2023-01-17T20:30:20.349Z,82
2023-01-17T20:35:15.092Z,81
2023-01-17T20:40:15.084Z,81
2023-01-17T20:45:15.087Z,81
2023-01-17T20:50:15.081Z,81
2023-01-17T20:55:15.103Z,81
2023-01-17T21:00:15.089Z,81
2023-01-17T21:05:15.099Z,80
2023-01-17T21:10:15.096Z,80
2023-01-17T21:15:15.095Z,80
2023-01-17T21:20:15.089Z,80
2023-01-17T21:25:15.087Z,80
2023-01-17T21:30:15.097Z,79
2023-01-17T21:35:15.101Z,78
2023-01-17T21:40:15.089Z,78
2023-01-17T21:45:15.109Z,78
2023-01-17T21:50:25.168Z,78
2023-01-17T21:55:15.092Z,78
2023-01-17T22:00:15.090Z,77
2023-01-17T22:05:15.090Z,77
2023-01-17T22:10:15.090Z,77
2023-01-17T22:15:15.095Z,77
2023-01-17T22:20:15.084Z,77
2023-01-17T22:25:15.083Z,77
2023-01-17T22:30:15.096Z,77
2023-01-17T22:35:15.237Z,76
2023-01-17T22:40:15.100Z,76
2023-01-17T22:45:15.086Z,76
2023-01-17T22:50:15.088Z,76
2023-01-17T22:55:15.094Z,76
2023-01-17T23:00:15.086Z,76
2023-01-17T23:05:15.086Z,77
2023-01-17T23:10:15.098Z,77
2023-01-17T23:15:15.087Z,77
2023-01-17T23:20:15.086Z,77
2023-01-17T23:25:15.085Z,78
2023-01-17T23:30:15.118Z,78
2023-01-17T23:35:15.121Z,78
2023-01-17T23:40:15.094Z,77
2023-01-17T23:45:15.083Z,77
2023-01-17T23:50:15.093Z,78
2023-01-17T23:55:15.095Z,78
